createdAt,value
2019-04-20T00:01:44.905Z,5.50
2019-04-20T00:04:20.501Z,5.97
2019-04-20T00:06:48.541Z,5.33
2019-04-20T00:09:19.348Z,5.70
2019-04-20T00:11:53.565Z,5.40
2019-04-20T00:14:21.900Z,5.63
2019-04-20T00:16:44.563Z,5.03
2019-04-20T00:19:15.340Z,5.47
2019-04-20T00:21:52.705Z,5.23
2019-04-20T00:24:27.572Z,6.10
2019-04-20T00:27:13.687Z,5.47
2019-04-20T00:29:40.712Z,5.40
2019-04-20T00:32:02.569Z,5.23
2019-04-20T00:34:30.071Z,5.70
2019-04-20T00:36:56.342Z,6.77
2019-04-20T00:39:25.873Z,6.30
2019-04-20T00:42:00.424Z,5.63
2019-04-20T00:44:30.383Z,5.90
2019-04-20T00:47:08.527Z,5.13
2019-04-20T00:49:38.813Z,6.00
2019-04-20T00:52:24.289Z,6.43
2019-04-20T00:54:28.471Z,5.87
2019-04-20T00:57:11.817Z,5.40
2019-04-20T00:59:42.882Z,5.60
2019-04-20T01:02:14.056Z,7.07
2019-04-20T01:04:50.452Z,6.10
2019-04-20T01:07:17.678Z,6.67
2019-04-20T01:09:51.968Z,6.80
2019-04-20T01:12:25.918Z,7.37
2019-04-20T01:14:55.993Z,7.27
2019-04-20T01:17:20.678Z,7.80
2019-04-20T01:19:52.705Z,9.27
2019-04-20T01:22:22.405Z,9.73
2019-04-20T01:24:51.576Z,8.30
2019-04-20T01:27:32.190Z,7.20
2019-04-20T01:30:00.568Z,7.80
2019-04-20T01:32:31.103Z,10.83
2019-04-20T01:34:58.597Z,11.60
2019-04-20T01:37:32.827Z,10.20
2019-04-20T01:39:55.449Z,8.30
2019-04-20T01:42:21.388Z,7.43
2019-04-20T01:44:52.432Z,8.93
2019-04-20T01:47:23.895Z,11.67
2019-04-20T01:49:59.858Z,10.20
2019-04-20T01:52:27.010Z,10.10
2019-04-20T01:55:24.495Z,9.60
2019-04-20T01:58:00.424Z,11.47
2019-04-20T02:00:35.209Z,9.73
2019-04-20T02:03:22.857Z,9.53
2019-04-20T02:05:56.443Z,8.07
2019-04-20T02:08:21.462Z,10.00
2019-04-20T02:10:53.674Z,8.00
2019-04-20T02:13:19.576Z,9.43
2019-04-20T02:15:54.123Z,10.27
2019-04-20T02:18:31.826Z,9.23
2019-04-20T02:21:05.161Z,8.37
2019-04-20T02:23:31.793Z,9.53
2019-04-20T02:25:50.068Z,9.00
2019-04-20T02:28:38.281Z,10.40
2019-04-20T02:31:24.831Z,9.80
2019-04-20T02:33:59.220Z,9.10
2019-04-20T02:36:47.869Z,8.67
2019-04-20T02:41:43.998Z,8.40
2019-04-20T02:44:17.993Z,8.57
2019-04-20T02:46:43.002Z,7.80
2019-04-20T02:49:17.595Z,8.17
2019-04-20T02:51:41.159Z,8.17
2019-04-20T02:54:17.039Z,7.70
2019-04-20T02:56:40.261Z,8.30
2019-04-20T02:59:25.031Z,7.97
2019-04-20T03:01:29.412Z,7.63
2019-04-20T03:03:44.975Z,6.60
2019-04-20T03:06:20.739Z,7.13
2019-04-20T03:09:06.332Z,7.03
2019-04-20T03:11:44.208Z,7.10
2019-04-20T03:13:59.386Z,6.93
2019-04-20T03:16:25.185Z,6.73
2019-04-20T03:18:57.402Z,5.90
2019-04-20T03:21:33.448Z,7.00
2019-04-20T03:24:08.394Z,6.30
2019-04-20T03:26:36.820Z,6.70
2019-04-20T03:29:18.860Z,6.53
2019-04-20T03:35:03.320Z,6.77
2019-04-20T03:37:10.913Z,6.63
2019-04-20T03:39:28.500Z,6.40
2019-04-20T03:41:48.266Z,7.30
2019-04-20T03:44:17.643Z,6.20
2019-04-20T03:46:51.560Z,6.47
2019-04-20T03:49:37.982Z,6.40
2019-04-20T03:52:02.760Z,5.80
2019-04-20T03:54:30.828Z,6.40
2019-04-20T03:57:15.634Z,6.43
2019-04-20T03:59:44.642Z,6.30
2019-04-20T04:05:06.246Z,6.03
2019-04-20T04:07:28.289Z,6.67
2019-04-20T04:10:06.962Z,6.80
2019-04-20T04:12:56.796Z,6.63
2019-04-20T04:15:25.436Z,7.17
2019-04-20T04:17:57.932Z,6.00
2019-04-20T04:20:33.251Z,6.37
2019-04-20T04:23:10.364Z,6.70
2019-04-20T04:25:35.560Z,6.07
2019-04-20T04:28:10.801Z,6.80
2019-04-20T04:30:36.596Z,6.40
2019-04-20T04:35:38.791Z,7.90
2019-04-20T04:38:12.660Z,7.17
2019-04-20T04:40:56.709Z,6.60
2019-04-20T04:43:16.040Z,6.10
2019-04-20T04:45:28.523Z,7.30
2019-04-20T04:47:57.698Z,6.73
2019-04-20T04:50:28.613Z,6.53
2019-04-20T04:53:04.662Z,7.03
2019-04-20T04:55:37.056Z,6.60
2019-04-20T04:57:58.138Z,6.87
2019-04-20T05:00:31.221Z,6.43
2019-04-20T05:03:07.008Z,7.27
2019-04-20T05:05:55.921Z,7.00
2019-04-20T05:08:15.430Z,6.90
2019-04-20T05:10:37.014Z,7.40
2019-04-20T05:13:05.568Z,6.77
2019-04-20T05:15:48.429Z,7.33
2019-04-20T05:18:32.142Z,7.00
2019-04-20T05:20:59.094Z,7.20
2019-04-20T05:23:30.264Z,6.90
2019-04-20T05:26:08.489Z,6.73
2019-04-20T05:28:30.508Z,7.90
2019-04-20T05:30:54.979Z,7.47
2019-04-20T05:33:27.798Z,7.27
2019-04-20T05:36:16.348Z,6.63
2019-04-20T05:38:50.375Z,6.97
2019-04-20T05:41:09.935Z,7.47
2019-04-20T05:43:41.706Z,7.43
2019-04-20T05:46:16.936Z,7.00
2019-04-20T05:48:48.751Z,7.67
2019-04-20T05:51:21.164Z,7.30
2019-04-20T05:53:50.351Z,7.23
2019-04-20T05:56:20.338Z,8.00
2019-04-20T05:58:53.591Z,7.83
2019-04-20T06:01:25.868Z,7.87
2019-04-20T06:03:49.028Z,9.27
2019-04-20T06:06:23.477Z,8.43
2019-04-20T06:08:59.942Z,8.27
2019-04-20T06:11:21.181Z,8.53
2019-04-20T06:13:50.721Z,7.33
2019-04-20T06:19:33.180Z,8.03
2019-04-20T06:22:03.344Z,7.80
2019-04-20T06:24:55.321Z,8.10
2019-04-20T06:27:06.246Z,7.33
2019-04-20T06:29:39.031Z,10.23
2019-04-20T06:32:10.873Z,11.37
2019-04-20T06:34:49.023Z,10.67
2019-04-20T06:37:04.115Z,10.23
2019-04-20T06:39:38.617Z,8.77
2019-04-20T06:42:14.046Z,8.10
2019-04-20T06:44:34.360Z,8.13
2019-04-20T06:47:11.682Z,9.00
2019-04-20T06:49:38.432Z,8.37
2019-04-20T06:52:17.165Z,11.37
2019-04-20T06:54:54.110Z,15.00
2019-04-20T06:57:31.314Z,13.50
2019-04-20T07:00:03.763Z,10.67
2019-04-20T07:04:59.974Z,13.37
2019-04-20T07:07:29.772Z,12.40
2019-04-20T07:10:12.123Z,8.67
2019-04-20T07:12:27.552Z,6.87
2019-04-20T07:14:53.002Z,9.40
2019-04-20T07:17:43.808Z,7.83
2019-04-20T07:20:00.266Z,8.50
2019-04-20T07:22:53.874Z,10.70
2019-04-20T07:25:07.966Z,10.50
2019-04-20T07:27:36.866Z,11.03
2019-04-20T07:30:07.837Z,9.73
2019-04-20T07:32:44.278Z,20.27
2019-04-20T07:35:08.790Z,15.30
2019-04-20T07:38:03.304Z,8.57
2019-04-20T07:40:10.455Z,8.37
2019-04-20T07:42:40.697Z,7.00
2019-04-20T07:45:16.451Z,9.40
2019-04-20T07:48:01.437Z,30.80
2019-04-20T07:50:08.734Z,8.80
2019-04-20T07:52:33.818Z,7.07
2019-04-20T07:55:35.191Z,6.07
2019-04-20T07:57:39.070Z,7.93
2019-04-20T08:00:13.722Z,8.20
2019-04-20T08:02:48.798Z,7.10
2019-04-20T08:05:27.844Z,7.40
2019-04-20T08:07:53.387Z,8.50
2019-04-20T08:10:32.439Z,5.87
2019-04-20T08:13:10.711Z,5.97
2019-04-20T08:15:46.144Z,5.97
2019-04-20T08:18:16.414Z,7.50
2019-04-20T08:20:43.904Z,8.60
2019-04-20T08:23:14.305Z,6.20
2019-04-20T08:25:30.607Z,5.50
2019-04-20T08:28:16.747Z,5.93
2019-04-20T08:31:06.332Z,6.80
2019-04-20T08:33:55.026Z,5.10
2019-04-20T08:36:16.718Z,9.17
2019-04-20T08:41:12.871Z,4.83
2019-04-20T08:43:57.419Z,5.57
2019-04-20T08:46:20.702Z,6.10
2019-04-20T08:48:53.523Z,5.47
2019-04-20T08:51:19.986Z,4.60
2019-04-20T08:53:51.759Z,9.20
2019-04-20T08:56:14.232Z,6.07
2019-04-20T08:58:33.940Z,10.67
2019-04-20T09:01:05.605Z,5.60
2019-04-20T09:03:47.538Z,5.20
2019-04-20T09:06:14.541Z,4.97
2019-04-20T09:08:46.596Z,4.60
2019-04-20T09:11:19.727Z,5.20
2019-04-20T09:13:42.488Z,5.00
2019-04-20T09:16:04.803Z,5.80
2019-04-20T09:18:44.347Z,5.20
2019-04-20T09:21:13.674Z,4.97
2019-04-20T09:23:58.026Z,4.47
2019-04-20T09:26:27.046Z,4.53
2019-04-20T09:29:01.673Z,4.63
2019-04-20T09:31:34.092Z,4.87
2019-04-20T09:34:13.046Z,4.50
2019-04-20T09:39:24.655Z,4.60
2019-04-20T09:42:00.902Z,7.43
2019-04-20T09:44:24.549Z,5.70
2019-04-20T09:46:56.342Z,4.47
2019-04-20T09:49:37.747Z,4.53
2019-04-20T09:52:06.839Z,4.80
2019-04-20T09:54:39.981Z,4.50
2019-04-20T09:57:13.770Z,4.80
2019-04-20T09:59:44.803Z,4.83
2019-04-20T10:02:04.550Z,4.57
2019-04-20T10:04:23.950Z,4.93
2019-04-20T10:06:52.597Z,5.00
2019-04-20T10:09:29.529Z,5.10
2019-04-20T10:11:51.234Z,5.30
2019-04-20T10:14:20.048Z,5.20
2019-04-20T10:16:49.732Z,5.27
2019-04-20T10:19:24.859Z,5.10
2019-04-20T10:21:48.696Z,5.50
2019-04-20T10:24:17.118Z,5.70
2019-04-20T10:26:45.543Z,6.20
2019-04-20T10:29:15.362Z,5.67
2019-04-20T10:31:52.693Z,5.90
2019-04-20T10:34:14.109Z,5.10
2019-04-20T10:36:47.904Z,5.73
2019-04-20T10:39:18.433Z,5.60
2019-04-20T10:41:53.532Z,6.00
2019-04-20T10:44:17.237Z,5.50
2019-04-20T10:46:46.947Z,5.40
2019-04-20T10:49:15.534Z,4.10
2019-04-20T10:51:44.041Z,6.43
2019-04-20T10:54:12.537Z,4.90
2019-04-20T10:56:41.472Z,5.10
2019-04-20T10:59:10.036Z,6.10
2019-04-20T11:01:38.476Z,4.00
2019-04-20T11:04:08.355Z,4.57
2019-04-20T11:06:38.569Z,4.93
2019-04-20T11:09:08.930Z,4.47
2019-04-20T11:11:38.682Z,5.23
2019-04-20T11:14:14.500Z,3.97
2019-04-20T11:16:38.251Z,4.47
2019-04-20T11:19:07.419Z,3.97
2019-04-20T11:21:36.524Z,4.00
2019-04-20T11:24:05.230Z,4.67
2019-04-20T11:26:36.597Z,4.20
2019-04-20T11:29:04.230Z,4.97
2019-04-20T11:31:39.109Z,3.50
2019-04-20T11:34:03.895Z,3.20
2019-04-20T11:36:32.977Z,5.23
2019-04-20T11:39:02.921Z,4.40
2019-04-20T11:41:34.011Z,4.67
2019-04-20T11:44:02.044Z,4.00
2019-04-20T11:46:30.592Z,5.17
2019-04-20T11:48:59.474Z,4.13
2019-04-20T11:51:27.986Z,4.70
2019-04-20T11:53:56.550Z,5.20
2019-04-20T11:56:31.445Z,4.67
2019-04-20T11:58:55.135Z,7.00
2019-04-20T12:01:35.017Z,6.00
2019-04-20T12:04:03.977Z,5.53
2019-04-20T12:06:28.921Z,4.37
2019-04-20T12:08:58.965Z,5.47
2019-04-20T12:11:38.412Z,5.63
2019-04-20T12:13:58.665Z,6.37
2019-04-20T12:16:27.855Z,5.30
2019-04-20T12:18:56.743Z,4.90
2019-04-20T12:21:26.476Z,4.90
2019-04-20T12:23:56.192Z,7.83
2019-04-20T12:26:24.978Z,5.43
2019-04-20T12:28:53.872Z,6.67
2019-04-20T12:31:24.750Z,5.27
2019-04-20T12:33:52.641Z,5.90
2019-04-20T12:36:21.146Z,6.07
2019-04-20T12:38:50.903Z,6.03
2019-04-20T12:41:31.119Z,5.87
2019-04-20T12:43:49.863Z,5.93
2019-04-20T12:46:21.427Z,6.40
2019-04-20T12:48:49.372Z,5.27
2019-04-20T12:51:17.904Z,6.33
2019-04-20T12:53:46.702Z,6.30
2019-04-20T12:56:16.811Z,6.00
2019-04-20T12:58:45.513Z,6.13
2019-04-20T13:01:14.624Z,5.97
2019-04-20T13:03:45.571Z,5.70
2019-04-20T13:06:14.635Z,6.30
2019-04-20T13:08:49.898Z,5.73
2019-04-20T13:11:16.205Z,5.77
2019-04-20T13:13:56.534Z,6.27
2019-04-20T13:16:30.381Z,7.10
2019-04-20T13:19:01.543Z,6.73
2019-04-20T13:21:31.201Z,6.30
2019-04-20T13:24:00.880Z,7.87
2019-04-20T13:26:29.520Z,6.73
2019-04-20T13:28:59.378Z,6.27
2019-04-20T13:31:27.910Z,5.50
2019-04-20T13:33:57.201Z,6.63
2019-04-20T13:36:26.180Z,6.30
2019-04-20T13:38:54.618Z,6.60
2019-04-20T13:41:24.122Z,7.40
2019-04-20T13:43:54.831Z,6.77
2019-04-20T13:46:22.987Z,7.23
2019-04-20T13:48:51.526Z,7.13
2019-04-20T13:51:21.026Z,6.93
2019-04-20T13:53:50.775Z,6.83
2019-04-20T13:56:21.766Z,7.10
2019-04-20T13:58:51.958Z,6.70
2019-04-20T14:01:39.015Z,7.73
2019-04-20T14:04:12.684Z,7.43
2019-04-20T14:06:41.822Z,7.73
2019-04-20T14:09:11.843Z,7.20
2019-04-20T14:11:41.414Z,7.63
2019-04-20T14:14:10.856Z,8.87
2019-04-20T14:16:39.444Z,6.60
2019-04-20T14:19:09.193Z,6.20
2019-04-20T14:21:38.464Z,7.03
2019-04-20T14:24:08.773Z,6.00
2019-04-20T14:26:40.349Z,6.90
2019-04-20T14:29:07.642Z,6.50
2019-04-20T14:31:37.427Z,6.80
2019-04-20T14:34:06.854Z,6.33
2019-04-20T14:36:37.021Z,6.83
2019-04-20T14:39:07.897Z,5.60
2019-04-20T14:41:36.401Z,7.27
2019-04-20T14:44:05.803Z,6.20
2019-04-20T14:46:35.751Z,6.20
2019-04-20T14:49:04.919Z,6.70
2019-04-20T14:51:33.679Z,6.40
2019-04-20T14:54:03.264Z,6.40
2019-04-20T14:56:31.794Z,5.60
2019-04-20T14:59:05.279Z,6.70
2019-04-20T15:01:44.947Z,6.63
2019-04-20T15:04:17.993Z,6.60
2019-04-20T15:06:44.456Z,6.40
2019-04-20T15:09:13.098Z,6.13
2019-04-20T15:11:44.267Z,7.03
2019-04-20T15:14:11.672Z,7.03
2019-04-20T15:16:40.400Z,6.50
2019-04-20T15:19:11.798Z,5.90
2019-04-20T15:21:42.104Z,5.83
2019-04-20T15:24:11.351Z,6.00
2019-04-20T15:26:40.446Z,5.60
2019-04-20T15:29:10.383Z,6.00
2019-04-20T15:31:39.098Z,6.97
2019-04-20T15:34:08.833Z,7.30
2019-04-20T15:36:38.166Z,5.80
2019-04-20T15:39:07.557Z,6.27
2019-04-20T15:41:36.003Z,6.00
2019-04-20T15:44:04.785Z,6.50
2019-04-20T15:46:34.741Z,7.27
2019-04-20T15:49:04.080Z,5.93
2019-04-20T15:51:34.150Z,6.00
2019-04-20T15:54:02.763Z,9.90
2019-04-20T15:56:31.167Z,6.77
2019-04-20T15:58:59.601Z,6.33
2019-04-20T16:01:30.304Z,6.37
2019-04-20T16:04:01.528Z,6.40
2019-04-20T16:06:31.569Z,11.20
2019-04-20T16:09:02.102Z,7.93
2019-04-20T16:11:31.052Z,6.60
2019-04-20T16:14:00.184Z,7.00
2019-04-20T16:16:31.949Z,5.70
2019-04-20T16:19:04.032Z,5.73
2019-04-20T16:21:33.953Z,8.47
2019-04-20T16:24:02.382Z,16.07
2019-04-20T16:26:33.503Z,6.83
2019-04-20T16:29:03.716Z,8.00
2019-04-20T16:31:32.738Z,7.17
2019-04-20T16:34:01.264Z,9.40
2019-04-20T16:36:30.499Z,7.93
2019-04-20T16:38:59.520Z,6.90
2019-04-20T16:41:28.426Z,6.47
2019-04-20T16:43:57.467Z,6.73
2019-04-20T16:46:26.095Z,6.13
2019-04-20T16:48:54.958Z,6.90
2019-04-20T16:51:25.163Z,6.43
2019-04-20T16:53:54.014Z,6.40
2019-04-20T16:56:22.586Z,6.47
2019-04-20T16:58:57.256Z,7.33
2019-04-20T17:01:21.591Z,9.67
2019-04-20T17:04:01.050Z,6.20
2019-04-20T17:06:22.195Z,7.00
2019-04-20T17:08:51.333Z,6.57
2019-04-20T17:11:19.945Z,6.20
2019-04-20T17:13:52.761Z,9.77
2019-04-20T17:19:41.541Z,7.10
2019-04-20T17:35:00.513Z,6.13
2019-04-20T17:37:15.889Z,13.40
2019-04-20T17:46:02.747Z,9.00
2019-04-20T17:48:37.186Z,6.57
2019-04-20T17:51:20.760Z,7.20
2019-04-20T17:53:37.424Z,8.20
2019-04-20T17:56:02.361Z,7.97
2019-04-20T17:58:34.431Z,8.00
2019-04-20T18:01:08.680Z,7.43
2019-04-20T18:06:27.729Z,7.43
2019-04-20T18:08:59.880Z,7.17
2019-04-20T18:11:21.368Z,7.10
2019-04-20T18:13:47.827Z,7.60
2019-04-20T18:16:41.835Z,6.83
2019-04-20T18:19:05.671Z,7.10
2019-04-20T18:21:43.549Z,6.93
2019-04-20T18:24:24.009Z,9.77
2019-04-20T18:26:59.654Z,7.73
2019-04-20T18:29:32.680Z,8.87
2019-04-20T18:31:44.352Z,8.40
2019-04-20T18:34:23.717Z,8.20
2019-04-20T18:36:51.576Z,8.70
2019-04-20T18:39:30.516Z,8.20
2019-04-20T18:42:01.206Z,10.40
2019-04-20T18:44:32.373Z,15.37
2019-04-20T18:47:26.433Z,16.50
2019-04-20T19:13:22.366Z,9.33
2019-04-20T19:16:16.564Z,10.90
2019-04-20T19:19:04.370Z,10.40
2019-04-20T19:21:29.564Z,10.03
2019-04-20T19:24:06.526Z,9.60
2019-04-20T19:26:28.648Z,10.00
2019-04-20T19:29:12.005Z,11.40
2019-04-20T19:31:44.774Z,25.13
2019-04-20T19:34:18.562Z,12.87
2019-04-20T19:36:36.778Z,10.80
2019-04-20T19:39:15.125Z,12.07
2019-04-20T19:41:41.795Z,11.67
2019-04-20T19:44:13.091Z,23.43
2019-04-20T19:46:48.254Z,20.50
2019-04-20T19:49:16.636Z,16.30
2019-04-20T19:51:55.155Z,12.10
2019-04-20T19:54:25.492Z,10.03
2019-04-20T19:56:47.037Z,9.93
2019-04-20T19:59:11.163Z,9.90
2019-04-20T20:01:31.687Z,11.67
2019-04-20T20:04:04.003Z,15.00
2019-04-20T20:06:39.133Z,14.17
2019-04-20T20:09:05.817Z,12.20
2019-04-20T20:11:40.450Z,11.90
2019-04-20T20:14:10.975Z,10.03
2019-04-20T20:17:02.685Z,10.50
2019-04-20T20:19:29.538Z,13.53
2019-04-20T20:22:00.365Z,25.60
2019-04-20T20:24:17.997Z,10.47
2019-04-20T20:26:53.367Z,15.53
2019-04-20T20:29:28.388Z,21.27
2019-04-20T20:32:05.027Z,15.00
2019-04-20T20:34:28.583Z,11.87
2019-04-20T20:36:59.835Z,13.57
2019-04-20T20:39:27.725Z,13.43
2019-04-20T20:42:01.686Z,10.97
2019-04-20T20:44:37.276Z,11.03
2019-04-20T20:47:05.832Z,18.23
2019-04-20T20:49:48.609Z,13.63
2019-04-20T20:52:14.548Z,11.37
2019-04-20T20:54:40.517Z,11.43
2019-04-20T20:57:02.820Z,11.03
2019-04-20T20:59:34.762Z,19.37
2019-04-20T21:02:04.401Z,23.90
2019-04-20T21:04:25.769Z,16.23
2019-04-20T21:06:54.899Z,14.30
2019-04-20T21:09:25.457Z,13.53
2019-04-20T21:12:00.895Z,13.10
2019-04-20T21:14:27.893Z,13.90
2019-04-20T21:17:02.759Z,14.80
2019-04-20T21:19:45.193Z,12.97
2019-04-20T21:22:02.986Z,16.77
2019-04-20T21:24:27.274Z,15.10
2019-04-20T21:27:01.620Z,11.43
2019-04-20T21:29:33.793Z,11.83
2019-04-20T21:32:03.371Z,13.30
2019-04-20T21:34:27.353Z,11.23
2019-04-20T21:37:03.497Z,10.37
2019-04-20T21:39:37.086Z,11.50
2019-04-20T21:42:04.369Z,11.50
2019-04-20T21:44:31.712Z,15.90
2019-04-20T21:46:58.223Z,17.40
2019-04-20T21:49:43.974Z,13.43
2019-04-20T21:52:01.695Z,12.70
2019-04-20T21:54:27.798Z,11.27
2019-04-20T21:57:01.653Z,12.03
2019-04-20T21:59:34.610Z,12.37
2019-04-20T22:02:09.875Z,11.93
2019-04-20T22:04:29.132Z,12.33
2019-04-20T22:06:58.302Z,11.60
2019-04-20T22:09:34.507Z,12.37
2019-04-20T22:11:58.507Z,10.97
2019-04-20T22:14:31.331Z,12.50
2019-04-20T22:17:00.049Z,12.80
2019-04-20T22:19:36.655Z,13.03
2019-04-20T22:22:07.705Z,12.50
2019-04-20T22:24:43.764Z,13.20
2019-04-20T22:27:06.339Z,11.60
2019-04-20T22:29:28.134Z,13.67
2019-04-20T22:32:03.934Z,12.10
2019-04-20T22:34:29.843Z,11.90
2019-04-20T22:36:58.476Z,12.27
2019-04-20T22:39:32.225Z,14.30
2019-04-20T22:42:04.930Z,11.53
2019-04-20T22:44:31.054Z,13.97
2019-04-20T22:47:04.157Z,12.20
2019-04-20T22:49:44.219Z,11.60
2019-04-20T22:52:18.579Z,12.00
2019-04-20T22:54:44.707Z,12.20
2019-04-20T22:57:09.374Z,13.53
2019-04-20T22:59:42.168Z,15.10
2019-04-20T23:02:04.158Z,14.10
2019-04-20T23:04:33.042Z,13.03
2019-04-20T23:07:03.009Z,11.30
2019-04-20T23:09:34.127Z,12.80
2019-04-20T23:12:09.648Z,12.80
2019-04-20T23:14:36.409Z,13.47
2019-04-20T23:22:13.565Z,11.20
2019-04-20T23:24:45.002Z,12.27
2019-04-20T23:27:20.834Z,12.37
2019-04-20T23:29:45.124Z,12.37
2019-04-20T23:32:15.935Z,11.80
2019-04-20T23:34:44.750Z,11.60
2019-04-20T23:37:17.002Z,12.07
2019-04-20T23:39:47.323Z,14.17
2019-04-20T23:42:16.117Z,15.97
2019-04-20T23:45:02.218Z,13.17
2019-04-20T23:47:54.157Z,12.77
2019-04-20T23:53:24.324Z,13.20
2019-04-20T23:55:37.138Z,13.20
2019-04-20T23:58:08.784Z,14.73
